地図

経路データ

SID SEASON NUMBER BASIN SUBBASIN NAME ISO_TIME NATURE LAT LON WMO_WIND WMO_PRES WMO_AGENCY TRACK_TYPE DIST2LAND LANDFALL IFLAG USA_AGENCY USA_ATCF_ID USA_LAT USA_LON USA_RECORD USA_STATUS USA_WIND USA_PRES USA_SSHS USA_R34_NE USA_R34_SE USA_R34_SW USA_R34_NW USA_R50_NE USA_R50_SE USA_R50_SW USA_R50_NW USA_R64_NE USA_R64_SE USA_R64_SW USA_R64_NW USA_POCI USA_ROCI USA_RMW USA_EYE TOKYO_LAT TOKYO_LON TOKYO_GRADE TOKYO_WIND TOKYO_PRES TOKYO_R50_DIR TOKYO_R50_LONG TOKYO_R50_SHORT TOKYO_R30_DIR TOKYO_R30_LONG TOKYO_R30_SHORT TOKYO_LAND CMA_LAT CMA_LON CMA_CAT CMA_WIND CMA_PRES HKO_LAT HKO_LON HKO_CAT HKO_WIND HKO_PRES NEWDELHI_LAT NEWDELHI_LON NEWDELHI_GRADE NEWDELHI_WIND NEWDELHI_PRES NEWDELHI_CI NEWDELHI_DP NEWDELHI_POCI REUNION_LAT REUNION_LON REUNION_TYPE REUNION_WIND REUNION_PRES REUNION_TNUM REUNION_CI REUNION_RMW REUNION_R34_NE REUNION_R34_SE REUNION_R34_SW REUNION_R34_NW REUNION_R50_NE REUNION_R50_SE REUNION_R50_SW REUNION_R50_NW REUNION_R64_NE REUNION_R64_SE REUNION_R64_SW REUNION_R64_NW BOM_LAT BOM_LON BOM_TYPE BOM_WIND BOM_PRES BOM_TNUM BOM_CI BOM_RMW BOM_R34_NE BOM_R34_SE BOM_R34_SW BOM_R34_NW BOM_R50_NE BOM_R50_SE BOM_R50_SW BOM_R50_NW BOM_R64_NE BOM_R64_SE BOM_R64_SW BOM_R64_NW BOM_ROCI BOM_POCI BOM_EYE BOM_POS_METHOD BOM_PRES_METHOD NADI_LAT NADI_LON NADI_CAT NADI_WIND NADI_PRES WELLINGTON_LAT WELLINGTON_LON WELLINGTON_WIND WELLINGTON_PRES DS824_LAT DS824_LON DS824_STAGE DS824_WIND DS824_PRES TD9636_LAT TD9636_LON TD9636_STAGE TD9636_WIND TD9636_PRES TD9635_LAT TD9635_LON TD9635_WIND TD9635_PRES TD9635_ROCI NEUMANN_LAT NEUMANN_LON NEUMANN_CLASS NEUMANN_WIND NEUMANN_PRES MLC_LAT MLC_LON MLC_CLASS MLC_WIND MLC_PRES USA_GUST BOM_GUST BOM_GUST_PER REUNION_GUST REUNION_GUST_PER USA_SEAHGT USA_SEARAD_NE USA_SEARAD_SE USA_SEARAD_SW USA_SEARAD_NW STORM_SPEED STORM_DIR
1897269N20124 1897 34 WP MM NOT_NAMED 1897-09-26 04:00:00 NR 19.9000 124.100 main 252 252 __________O___ -1 19.9000 124.100 3 11 332
1897269N20124 1897 34 WP MM NOT_NAMED 1897-09-26 06:00:00 NR 20.2213 123.918 main 262 262 __________P___ -1 20.2213 123.918 3 11 333
1897269N20124 1897 34 WP MM NOT_NAMED 1897-09-26 09:00:00 NR 20.7014 123.655 main 296 270 __________P___ -1 20.7014 123.655 3 11 334
1897269N20124 1897 34 WP MM NOT_NAMED 1897-09-26 12:00:00 NR 21.1770 123.424 main 270 239 __________P___ -1 21.1770 123.424 3 10 338
1897269N20124 1897 34 WP MM NOT_NAMED 1897-09-26 15:00:00 NR 21.6457 123.245 main 239 235 __________P___ -1 21.6457 123.245 3 10 341
1897269N20124 1897 34 WP MM NOT_NAMED 1897-09-26 16:00:00 NR 21.8000 123.200 main 235 207 __________O___ -1 21.8000 123.200 4 9 347
1897269N20124 1897 34 WP MM NOT_NAMED 1897-09-26 18:00:00 NR 22.1064 123.136 main 207 182 __________P___ -1 22.1064 123.136 4 9 353
1897269N20124 1897 34 WP MM NOT_NAMED 1897-09-26 21:00:00 NR 22.5721 123.103 main 182 173 __________P___ -1 22.5721 123.103 4 10 0
1897269N20124 1897 34 WP MM NOT_NAMED 1897-09-27 00:00:00 NR 23.0644 123.142 main 173 165 __________P___ -1 23.0644 123.142 4 10 8
1897269N20124 1897 34 WP MM NOT_NAMED 1897-09-27 03:00:00 NR 23.6052 123.250 main 165 162 __________P___ -1 23.6052 123.250 4 11 11
1897269N20124 1897 34 WP MM NOT_NAMED 1897-09-27 04:00:00 NR 23.8000 123.300 main 162 152 __________O___ -1 23.8000 123.300 4 13 13
1897269N20124 1897 34 WP MM NOT_NAMED 1897-09-27 06:00:00 NR 24.2446 123.409 main 155 152 __________P___ -1 24.2446 123.409 4 14 14
1897269N20124 1897 34 WP MM NOT_NAMED 1897-09-27 09:00:00 NR 24.9626 123.630 main 161 161 __________P___ -1 24.9626 123.630 4 15 17
1897269N20124 1897 34 WP MM NOT_NAMED 1897-09-27 12:00:00 NR 25.6945 123.901 main 206 206 __________P___ -1 25.6945 123.901 4 15 20
1897269N20124 1897 34 WP MM NOT_NAMED 1897-09-27 15:00:00 NR 26.3870 124.199 main 270 270 __________P___ -1 26.3870 124.199 4 15 22
1897269N20124 1897 34 WP MM NOT_NAMED 1897-09-27 16:00:00 NR 26.6000 124.300 main 291 291 __________O___ -1 26.6000 124.300 4 13 24
1897269N20124 1897 34 WP MM NOT_NAMED 1897-09-27 18:00:00 NR 26.9913 124.502 main 320 315 __________P___ -1 26.9913 124.502 4 12 26
1897269N20124 1897 34 WP MM NOT_NAMED 1897-09-27 21:00:00 NR 27.5046 124.803 main 326 323 __________P___ -1 27.5046 124.803 4 11 29
1897269N20124 1897 34 WP MM NOT_NAMED 1897-09-28 00:00:00 NR 27.9538 125.101 main 330 330 __________P___ -1 27.9538 125.101 4 10 31
1897269N20124 1897 34 WP MM NOT_NAMED 1897-09-28 03:00:00 NR 28.3661 125.400 main 342 342 __________P___ -1 28.3661 125.400 4 10 33
1897269N20124 1897 34 WP MM NOT_NAMED 1897-09-28 04:00:00 NR 28.5000 125.500 main 349 __________O___ -1 28.5000 125.500 4 10 32

デジタル台風データ・検索

IBTrACS Databaseについて

本データベースは、米国NOAAが公開する1842年以降の世界の熱帯低気圧のベストトラックデータアーカイブInternational Best Track Archive for Climate Stewardship (IBTrACS)を、ウェブで閲覧しやすい形式に変換したものです。

最終更新日:2021-10-27